Time;durP1;ratioP1;P1;durP2;ratioP2;P2;SDS_P1;SDS_P2;PMS_P1;PMS_P2;Temp;Humidity;BMP_temperature;BMP_pressure;BME280_temperature;BME280_humidity;BME280_pressure;Samples;Min_cycle;Max_cycle;Signal;HPM_P1;HPM_P2
2023/07/07 00:00:36;;;;;;;4.85;2.20;;;25.20;96.70;;;;;;4887935;29;20451;-70
2023/07/07 00:03:05;;;;;;;3.47;2.17;;;25.10;96.70;;;;;;4871319;29;20689;-70
2023/07/07 00:05:35;;;;;;;5.05;2.63;;;25.10;96.70;;;;;;4881976;29;20075;-70
2023/07/07 00:08:04;;;;;;;3.25;2.50;;;25.00;96.70;;;;;;4871792;29;20475;-69
2023/07/07 00:10:43;;;;;;;5.45;2.30;;;25.00;96.70;;;;;;4888909;29;20044;-70
2023/07/07 00:13:13;;;;;;;6.35;2.17;;;25.10;96.70;;;;;;4887836;29;20539;-70
2023/07/07 00:15:44;;;;;;;6.45;2.50;;;25.10;96.70;;;;;;4871498;29;20064;-70
2023/07/07 00:18:27;;;;;;;2.72;2.05;;;25.00;96.70;;;;;;4877568;29;20045;-70
2023/07/07 00:20:59;;;;;;;4.57;2.20;;;25.00;96.70;;;;;;4877247;29;20052;-70
2023/07/07 00:23:29;;;;;;;3.83;2.13;;;25.00;96.70;;;;;;4883273;29;20056;-70
2023/07/07 00:25:59;;;;;;;2.88;1.90;;;25.10;96.70;;;;;;4853029;29;20694;-70
2023/07/07 00:28:27;;;;;;;3.03;1.98;;;25.20;96.70;;;;;;4884869;29;20053;-69
2023/07/07 00:30:56;;;;;;;3.88;2.15;;;25.00;96.70;;;;;;4888075;29;20045;-70
2023/07/07 00:33:27;;;;;;;2.72;2.33;;;24.90;96.70;;;;;;4877973;29;20178;-70
2023/07/07 00:35:56;;;;;;;3.13;2.05;;;24.70;96.70;;;;;;4855730;29;20597;-71
2023/07/07 00:38:25;;;;;;;4.90;2.10;;;24.50;96.70;;;;;;4887330;29;20082;-70
2023/07/07 00:40:54;;;;;;;3.50;2.30;;;24.50;96.70;;;;;;4888031;29;20060;-70
2023/07/07 00:43:22;;;;;;;5.18;2.22;;;24.60;96.70;;;;;;4855806;29;20068;-70
2023/07/07 00:45:51;;;;;;;4.03;2.05;;;24.50;96.70;;;;;;4869250;29;20048;-70
2023/07/07 00:48:22;;;;;;;5.80;2.38;;;24.60;96.70;;;;;;4864675;29;20632;-70
2023/07/07 00:50:55;;;;;;;3.15;2.42;;;24.80;96.70;;;;;;4871167;29;20584;-70
2023/07/07 00:53:25;;;;;;;4.55;2.10;;;24.90;96.70;;;;;;4888510;29;20052;-70
2023/07/07 00:55:59;;;;;;;3.72;2.20;;;24.80;96.70;;;;;;4888937;29;20076;-70
2023/07/07 00:58:28;;;;;;;3.90;2.22;;;24.70;96.70;;;;;;4863673;29;20053;-70
2023/07/07 01:01:00;;;;;;;5.03;2.40;;;24.90;96.70;;;;;;4888286;29;20047;-70
2023/07/07 01:03:51;;;;;;;2.97;2.05;;;24.90;96.70;;;;;;4892053;29;20051;-70
2023/07/07 01:07:13;;;;;;;6.68;2.55;;;25.00;96.70;;;;;;4890036;29;20614;-70
2023/07/07 01:09:46;;;;;;;3.42;2.25;;;24.80;96.70;;;;;;4875440;29;20044;-70
2023/07/07 01:12:17;;;;;;;4.38;2.25;;;24.60;96.70;;;;;;4891844;29;20040;-70
2023/07/07 01:14:48;;;;;;;3.47;2.10;;;24.60;96.70;;;;;;4858407;29;20048;-71
2023/07/07 01:17:38;;;;;;;3.00;2.08;;;24.70;96.70;;;;;;4871970;29;20709;-70
2023/07/07 01:20:21;;;;;;;8.02;2.88;;;24.60;96.70;;;;;;4867986;29;20065;-70
2023/07/07 01:23:32;;;;;;;3.85;2.38;;;24.60;96.70;;;;;;4874237;29;20063;-70
2023/07/07 01:26:31;;;;;;;3.50;2.13;;;24.70;96.70;;;;;;4873951;29;20084;-71
2023/07/07 01:29:16;;;;;;;3.65;1.90;;;24.60;96.70;;;;;;4887636;29;20056;-70
2023/07/07 01:31:50;;;;;;;4.72;2.63;;;24.50;96.70;;;;;;4890845;29;20135;-70
2023/07/07 01:34:19;;;;;;;4.82;2.38;;;24.20;96.70;;;;;;4882938;29;20045;-70
2023/07/07 01:36:47;;;;;;;4.28;2.40;;;24.10;96.70;;;;;;4863963;29;20049;-70
2023/07/07 01:39:15;;;;;;;3.85;2.80;;;23.90;96.70;;;;;;4889025;29;20128;-70
2023/07/07 01:41:52;;;;;;;2.83;2.40;;;23.90;96.70;;;;;;4887787;29;20049;-70
2023/07/07 01:44:27;;;;;;;4.75;2.60;;;23.90;96.70;;;;;;4861573;29;20081;-70
2023/07/07 01:47:03;;;;;;;3.90;2.75;;;24.00;96.70;;;;;;4888877;29;20072;-70
2023/07/07 01:49:37;;;;;;;4.88;2.58;;;24.10;96.70;;;;;;4889982;29;20112;-70
2023/07/07 01:52:11;;;;;;;3.20;2.40;;;23.90;96.70;;;;;;4889573;29;20052;-70
2023/07/07 01:54:43;;;;;;;4.72;2.35;;;23.80;96.70;;;;;;4877126;29;20177;-70
2023/07/07 01:57:13;;;;;;;6.35;2.35;;;24.00;96.70;;;;;;4879475;29;20045;-70
2023/07/07 01:59:43;;;;;;;3.53;2.92;;;24.10;96.70;;;;;;4881663;29;20535;-70
2023/07/07 02:02:13;;;;;;;6.07;2.60;;;24.10;96.70;;;;;;4860427;29;20067;-70
2023/07/07 02:04:41;;;;;;;2.65;1.92;;;24.10;96.70;;;;;;4889356;29;20598;-70
2023/07/07 02:07:09;;;;;;;4.80;2.83;;;24.00;96.70;;;;;;4882825;29;20041;-70
2023/07/07 02:09:38;;;;;;;3.78;2.53;;;24.20;96.70;;;;;;4890794;29;20053;-70
2023/07/07 02:12:07;;;;;;;4.00;2.40;;;24.30;96.70;;;;;;4873191;29;20044;-70
2023/07/07 02:14:35;;;;;;;3.90;2.58;;;24.20;96.70;;;;;;4888336;29;20057;-70
2023/07/07 02:17:04;;;;;;;3.53;2.58;;;24.00;96.70;;;;;;4873348;29;20068;-70
2023/07/07 02:19:34;;;;;;;6.35;2.50;;;24.00;96.70;;;;;;4873603;29;20049;-70
2023/07/07 02:22:03;;;;;;;4.00;2.30;;;24.00;96.70;;;;;;4888997;29;20577;-70
2023/07/07 02:24:31;;;;;;;5.10;2.35;;;24.10;96.70;;;;;;4873159;29;20049;-70
2023/07/07 02:26:58;;;;;;;3.65;2.63;;;24.10;96.70;;;;;;4864511;29;20139;-70
2023/07/07 02:29:26;;;;;;;4.45;2.72;;;24.10;96.70;;;;;;4873013;29;20068;-70
2023/07/07 02:31:54;;;;;;;5.55;2.55;;;24.00;96.70;;;;;;4853636;29;20195;-70
2023/07/07 02:34:22;;;;;;;2.83;2.15;;;23.90;96.70;;;;;;4872680;29;20120;-70
2023/07/07 02:36:53;;;;;;;3.70;2.40;;;23.80;96.70;;;;;;4871799;29;20044;-70
2023/07/07 02:39:21;;;;;;;3.95;2.25;;;23.70;96.70;;;;;;4888488;29;20055;-70
2023/07/07 02:41:49;;;;;;;4.68;2.35;;;23.70;96.70;;;;;;4873488;29;20048;-70
2023/07/07 02:44:17;;;;;;;3.95;2.65;;;23.70;96.70;;;;;;4864508;29;20052;-70
2023/07/07 02:46:45;;;;;;;4.57;2.88;;;23.80;96.70;;;;;;4866138;29;20522;-70
2023/07/07 02:49:13;;;;;;;3.45;2.05;;;23.80;96.70;;;;;;4871193;29;20076;-70
2023/07/07 02:51:41;;;;;;;5.28;2.60;;;23.80;96.70;;;;;;4865460;29;20577;-70
2023/07/07 02:54:11;;;;;;;4.80;2.42;;;23.80;96.70;;;;;;4873208;29;21126;-69
2023/07/07 02:56:39;;;;;;;4.65;2.35;;;23.70;96.70;;;;;;4866533;29;20107;-70
2023/07/07 02:59:06;;;;;;;3.92;2.15;;;23.70;96.70;;;;;;4871685;29;20057;-70
2023/07/07 03:01:35;;;;;;;3.25;2.03;;;23.60;96.70;;;;;;4886910;29;20521;-69
2023/07/07 03:04:04;;;;;;;3.20;2.17;;;23.60;96.70;;;;;;4872267;29;20398;-70
2023/07/07 03:06:32;;;;;;;4.20;2.30;;;23.50;96.70;;;;;;4855728;29;20072;-70
2023/07/07 03:09:00;;;;;;;3.95;1.75;;;23.60;96.70;;;;;;4863492;29;20720;-70
2023/07/07 03:11:30;;;;;;;4.18;2.10;;;23.60;96.70;;;;;;4859585;29;20147;-69
2023/07/07 03:13:58;;;;;;;4.68;2.50;;;23.70;96.70;;;;;;4869371;29;20076;-69
2023/07/07 03:16:31;;;;;;;4.25;2.95;;;23.80;96.70;;;;;;4872128;29;20143;-69
2023/07/07 03:19:05;;;;;;;3.15;2.40;;;23.70;96.70;;;;;;4869149;29;20048;-70
2023/07/07 03:21:37;;;;;;;4.40;2.15;;;23.70;96.70;;;;;;4862784;29;20049;-70
2023/07/07 03:24:25;;;;;;;3.92;2.47;;;23.60;96.70;;;;;;4878332;29;20053;-70
2023/07/07 03:26:54;;;;;;;4.82;2.63;;;23.70;96.70;;;;;;4865208;29;20147;-70
2023/07/07 03:29:27;;;;;;;3.80;2.40;;;23.60;96.70;;;;;;4865644;29;20207;-70
2023/07/07 03:31:56;;;;;;;3.03;2.10;;;23.60;96.70;;;;;;4871581;29;20059;-70
2023/07/07 03:34:28;;;;;;;3.42;2.13;;;23.50;96.70;;;;;;4863205;29;20072;-70
2023/07/07 03:36:56;;;;;;;4.40;2.42;;;23.60;96.70;;;;;;4855882;29;20084;-70
2023/07/07 03:39:24;;;;;;;3.75;2.40;;;23.70;96.70;;;;;;4871953;29;20040;-70
2023/07/07 03:41:54;;;;;;;4.65;2.28;;;23.80;96.70;;;;;;4872358;29;20073;-70
2023/07/07 03:44:23;;;;;;;3.58;2.15;;;23.80;96.70;;;;;;4871802;29;20076;-70
2023/07/07 03:46:52;;;;;;;4.75;2.70;;;23.80;96.70;;;;;;4871493;29;20056;-70
2023/07/07 03:49:20;;;;;;;3.65;2.25;;;23.70;96.70;;;;;;4871837;29;20163;-70
2023/07/07 03:51:48;;;;;;;6.05;2.78;;;23.60;96.70;;;;;;4872825;29;20138;-70
2023/07/07 03:54:16;;;;;;;5.03;2.47;;;23.60;96.70;;;;;;4872121;29;21203;-70
2023/07/07 03:56:45;;;;;;;4.18;2.55;;;23.70;96.70;;;;;;4868074;29;20507;-70
2023/07/07 03:59:14;;;;;;;4.07;2.13;;;23.80;96.70;;;;;;4866502;29;20063;-70
2023/07/07 04:01:42;;;;;;;2.88;2.45;;;23.70;96.70;;;;;;4855908;29;20049;-70
2023/07/07 04:04:10;;;;;;;3.20;2.17;;;23.70;96.70;;;;;;4862653;29;20540;-70
2023/07/07 04:06:39;;;;;;;4.18;2.33;;;23.80;96.70;;;;;;4867069;29;20490;-70
2023/07/07 04:09:06;;;;;;;3.83;2.30;;;23.80;96.70;;;;;;4888835;29;20097;-70
2023/07/07 04:11:34;;;;;;;5.15;2.55;;;23.50;96.70;;;;;;4872269;29;20060;-70
2023/07/07 04:14:02;;;;;;;4.18;2.70;;;23.50;96.70;;;;;;4856988;29;20104;-70
2023/07/07 04:16:32;;;;;;;7.03;2.75;;;23.40;96.70;;;;;;4882400;29;20040;-70
2023/07/07 04:19:00;;;;;;;2.80;2.17;;;23.40;96.70;;;;;;4869794;29;20135;-70
2023/07/07 04:21:30;;;;;;;3.95;2.38;;;23.40;96.70;;;;;;4880709;29;20053;-70
2023/07/07 04:24:00;;;;;;;3.90;2.65;;;23.30;96.70;;;;;;4871636;29;20055;-70
2023/07/07 04:26:30;;;;;;;6.10;2.53;;;23.40;96.70;;;;;;4888746;29;20048;-70
2023/07/07 04:28:59;;;;;;;6.97;2.47;;;23.40;96.70;;;;;;4872065;29;20049;-72
2023/07/07 04:31:29;;;;;;;5.57;2.13;;;23.40;96.70;;;;;;4887948;29;20135;-69
2023/07/07 04:33:58;;;;;;;5.40;2.72;;;23.40;96.70;;;;;;4885339;29;20105;-69
2023/07/07 04:36:26;;;;;;;2.97;2.30;;;23.50;96.70;;;;;;4862589;29;20048;-68
2023/07/07 04:39:03;;;;;;;4.95;2.63;;;23.60;96.70;;;;;;4888197;29;20120;-68
2023/07/07 04:41:32;;;;;;;3.65;2.67;;;23.50;96.70;;;;;;4889804;29;20060;-68
2023/07/07 04:44:01;;;;;;;7.35;2.65;;;23.50;96.70;;;;;;4887692;29;20522;-68
2023/07/07 04:46:31;;;;;;;5.50;2.95;;;23.40;96.70;;;;;;4871170;29;20088;-69
2023/07/07 04:49:06;;;;;;;5.32;3.00;;;23.40;96.70;;;;;;4893110;29;20594;-68
2023/07/07 04:51:36;;;;;;;4.78;2.67;;;23.40;96.70;;;;;;4888881;29;20562;-69
2023/07/07 04:54:05;;;;;;;5.72;3.88;;;23.60;96.70;;;;;;4887751;29;20473;-69
2023/07/07 04:56:33;;;;;;;4.15;3.20;;;23.60;96.70;;;;;;4888764;29;20779;-68
2023/07/07 04:59:03;;;;;;;6.80;3.42;;;23.60;96.70;;;;;;4884293;29;20063;-69
2023/07/07 05:01:31;;;;;;;4.43;3.10;;;23.70;96.70;;;;;;4883468;29;20080;-68
2023/07/07 05:04:03;;;;;;;6.20;3.05;;;23.80;96.70;;;;;;4885387;29;20041;-69
2023/07/07 05:06:33;;;;;;;5.45;2.75;;;23.70;96.70;;;;;;4887896;29;20533;-69
2023/07/07 05:09:01;;;;;;;6.28;3.13;;;23.60;96.70;;;;;;4888517;29;20048;-69
2023/07/07 05:11:30;;;;;;;8.15;3.20;;;23.50;96.70;;;;;;4868491;29;20053;-69
2023/07/07 05:14:00;;;;;;;6.45;3.78;;;23.50;96.70;;;;;;4883872;29;20048;-69
2023/07/07 05:16:59;;;;;;;4.85;3.15;;;23.50;96.70;;;;;;4871160;29;20056;-69
2023/07/07 05:19:31;;;;;;;5.28;3.40;;;23.50;96.70;;;;;;4842641;29;20072;-68
2023/07/07 05:22:00;;;;;;;4.43;3.33;;;23.60;96.70;;;;;;4871229;29;20052;-69
2023/07/07 05:24:30;;;;;;;5.47;3.58;;;23.60;96.70;;;;;;4870973;29;20124;-69
2023/07/07 05:26:58;;;;;;;5.53;3.10;;;23.60;96.70;;;;;;4877989;29;20041;-69
2023/07/07 05:29:26;;;;;;;5.38;3.38;;;23.70;96.70;;;;;;4885541;29;20049;-69
2023/07/07 05:31:54;;;;;;;6.80;3.92;;;23.80;96.70;;;;;;4881411;29;20044;-68
2023/07/07 05:34:21;;;;;;;6.15;4.32;;;23.90;96.70;;;;;;4887486;29;20195;-69
2023/07/07 05:36:51;;;;;;;6.50;3.75;;;24.10;96.70;;;;;;4888388;29;20613;-69
2023/07/07 05:39:19;;;;;;;6.00;3.67;;;23.80;96.70;;;;;;4888188;29;20044;-69
2023/07/07 05:41:46;;;;;;;6.18;4.40;;;23.60;96.70;;;;;;4887206;29;20079;-69
2023/07/07 05:44:14;;;;;;;6.10;4.40;;;23.50;96.70;;;;;;4869865;29;20058;-69
2023/07/07 05:46:43;;;;;;;8.15;4.30;;;23.70;96.70;;;;;;4871263;29;20602;-69
2023/07/07 05:49:12;;;;;;;7.47;4.47;;;23.90;96.70;;;;;;4888963;29;20052;-68
2023/07/07 05:51:40;;;;;;;6.85;4.50;;;23.90;96.70;;;;;;4874683;29;20059;-69
2023/07/07 05:54:09;;;;;;;8.48;4.32;;;24.00;96.70;;;;;;4890411;29;20566;-69
2023/07/07 05:56:37;;;;;;;8.73;4.55;;;24.00;96.70;;;;;;4866715;29;20052;-69
2023/07/07 05:59:06;;;;;;;7.40;4.53;;;24.10;96.70;;;;;;4875477;29;20156;-68
2023/07/07 06:01:35;;;;;;;6.30;4.32;;;24.30;96.70;;;;;;4879706;29;20040;-69
2023/07/07 06:04:22;;;;;;;7.20;4.07;;;24.30;96.70;;;;;;4889885;29;20047;-69
2023/07/07 06:07:00;;;;;;;8.43;4.78;;;24.30;96.70;;;;;;4884580;29;20064;-69
2023/07/07 06:09:31;;;;;;;8.50;3.85;;;24.50;96.70;;;;;;4874159;29;20588;-69
2023/07/07 06:11:59;;;;;;;10.20;3.42;;;24.50;96.70;;;;;;4890564;29;20131;-69
2023/07/07 06:14:27;;;;;;;5.22;2.78;;;24.70;96.70;;;;;;4873914;29;20053;-69
2023/07/07 06:16:55;;;;;;;5.65;3.67;;;24.80;96.70;;;;;;4890309;29;20048;-69
2023/07/07 06:19:23;;;;;;;5.90;3.53;;;24.90;96.70;;;;;;4890037;29;20131;-69
2023/07/07 06:21:51;;;;;;;5.75;3.15;;;25.10;96.70;;;;;;4890400;29;20049;-69
2023/07/07 06:24:19;;;;;;;4.38;3.17;;;25.20;96.70;;;;;;4890411;29;20112;-69
2023/07/07 06:26:48;;;;;;;5.45;3.40;;;25.20;96.70;;;;;;4877949;29;20056;-69
2023/07/07 06:29:22;;;;;;;6.88;3.65;;;25.30;96.70;;;;;;4890749;29;20041;-69
2023/07/07 06:32:10;;;;;;;5.38;3.10;;;25.40;96.70;;;;;;4873923;29;20565;-70
2023/07/07 06:34:38;;;;;;;4.25;2.90;;;25.40;96.70;;;;;;4842880;29;20414;-70
2023/07/07 06:37:06;;;;;;;5.22;3.13;;;25.40;96.70;;;;;;4889186;29;20041;-69
2023/07/07 06:39:34;;;;;;;7.80;4.10;;;25.50;96.70;;;;;;4864671;29;20063;-69
2023/07/07 06:42:25;;;;;;;4.40;2.85;;;25.50;96.70;;;;;;4884471;29;20049;-69
2023/07/07 06:45:08;;;;;;;3.75;3.28;;;25.60;96.70;;;;;;4806198;29;20073;-69
2023/07/07 06:47:36;;;;;;;7.43;3.72;;;25.60;96.70;;;;;;4805675;29;20073;-70
2023/07/07 06:50:06;;;;;;;4.97;3.08;;;25.70;96.70;;;;;;4805860;29;20062;-72
2023/07/07 06:52:34;;;;;;;5.28;3.25;;;25.80;96.70;;;;;;4798013;29;20061;-72
2023/07/07 06:55:02;;;;;;;5.43;3.00;;;25.80;96.70;;;;;;4800625;29;20059;-70
2023/07/07 06:57:32;;;;;;;7.70;2.97;;;25.90;96.70;;;;;;4806564;29;20054;-70
2023/07/07 07:00:00;;;;;;;6.43;3.20;;;26.00;96.70;;;;;;4805198;29;20048;-70
2023/07/07 07:02:29;;;;;;;4.55;2.60;;;26.00;96.70;;;;;;4805136;29;20064;-70
2023/07/07 07:04:58;;;;;;;4.93;2.83;;;26.10;96.70;;;;;;4803738;29;20055;-71
2023/07/07 07:07:27;;;;;;;4.75;2.78;;;26.20;96.70;;;;;;4800967;29;20534;-69
2023/07/07 07:09:56;;;;;;;2.97;2.47;;;26.20;96.70;;;;;;4812196;29;20086;-70
2023/07/07 07:12:24;;;;;;;5.30;2.80;;;26.20;96.70;;;;;;4816882;29;20068;-70
2023/07/07 07:14:55;;;;;;;7.72;2.80;;;26.30;96.70;;;;;;4815574;29;20054;-70
2023/07/07 07:17:43;;;;;;;6.45;2.95;;;26.40;96.70;;;;;;4807626;29;20058;-71
2023/07/07 07:20:12;;;;;;;3.42;2.75;;;26.50;96.70;;;;;;4815203;29;20133;-71
2023/07/07 07:22:40;;;;;;;4.72;2.40;;;26.60;96.70;;;;;;4865368;29;20066;-70
2023/07/07 07:25:10;;;;;;;4.72;2.50;;;26.60;96.70;;;;;;4881566;29;20047;-73
2023/07/07 07:27:38;;;;;;;4.70;2.17;;;26.70;96.70;;;;;;4863610;29;20132;-73
2023/07/07 07:30:12;;;;;;;3.40;2.08;;;26.80;96.70;;;;;;4867091;29;20048;-73
2023/07/07 07:32:40;;;;;;;4.68;2.50;;;26.80;96.70;;;;;;4869124;29;20059;-74
2023/07/07 07:35:11;;;;;;;3.88;2.30;;;26.90;96.70;;;;;;4872026;29;20044;-71
2023/07/07 07:37:40;;;;;;;2.63;1.92;;;26.90;96.70;;;;;;4879325;29;20679;-74
2023/07/07 07:40:09;;;;;;;3.90;1.92;;;27.00;96.70;;;;;;4883370;29;20053;-70
2023/07/07 07:42:59;;;;;;;3.63;2.20;;;27.00;96.70;;;;;;4883451;29;20048;-74
2023/07/07 07:45:29;;;;;;;2.95;1.70;;;27.10;96.70;;;;;;4886444;29;20487;-74
2023/07/07 07:47:57;;;;;;;3.90;1.83;;;27.10;96.70;;;;;;4880599;29;20080;-74
2023/07/07 07:50:41;;;;;;;3.65;1.83;;;27.30;96.70;;;;;;4877048;29;20049;-72
2023/07/07 07:53:11;;;;;;;2.15;1.50;;;27.40;96.70;;;;;;4886766;29;20062;-72
2023/07/07 07:55:43;;;;;;;4.82;1.90;;;27.50;96.70;;;;;;4871623;29;20057;-71
2023/07/07 07:58:59;;;;;;;2.53;1.88;;;27.50;96.70;;;;;;4874366;29;20414;-72
2023/07/07 08:01:37;;;;;;;3.50;2.38;;;27.70;96.70;;;;;;4881640;29;20124;-72
2023/07/07 08:04:06;;;;;;;3.92;1.75;;;27.80;96.70;;;;;;4870645;29;20044;-73
2023/07/07 08:06:42;;;;;;;3.72;1.60;;;27.90;96.70;;;;;;4882062;29;20055;-75
2023/07/07 08:09:12;;;;;;;2.78;1.65;;;28.00;96.70;;;;;;4887659;29;20049;-71
2023/07/07 08:12:01;;;;;;;2.83;1.88;;;28.10;96.70;;;;;;4882032;29;20483;-72
2023/07/07 08:14:32;;;;;;;2.78;1.45;;;28.20;96.70;;;;;;4887136;29;20053;-73
2023/07/07 08:17:04;;;;;;;4.35;1.85;;;28.20;96.70;;;;;;4871508;29;20056;-72
2023/07/07 08:19:34;;;;;;;3.45;1.65;;;28.30;96.70;;;;;;4888650;29;20071;-70
2023/07/07 08:22:05;;;;;;;2.30;1.50;;;28.40;96.70;;;;;;4866951;29;20550;-71
2023/07/07 08:24:39;;;;;;;3.20;1.90;;;28.40;96.70;;;;;;4883098;29;20053;-70
2023/07/07 08:27:09;;;;;;;4.60;1.88;;;28.50;96.70;;;;;;4881941;29;20044;-69
2023/07/07 08:29:40;;;;;;;4.30;1.80;;;28.50;96.70;;;;;;4891308;29;20044;-69
2023/07/07 08:32:12;;;;;;;2.40;1.75;;;28.50;96.70;;;;;;4884658;29;20046;-72
2023/07/07 08:34:41;;;;;;;2.95;1.50;;;28.50;96.70;;;;;;4883101;29;20045;-71
2023/07/07 08:37:22;;;;;;;5.95;2.05;;;28.60;96.70;;;;;;4861133;29;20064;-70
2023/07/07 08:39:50;;;;;;;3.65;1.98;;;28.80;96.70;;;;;;4886685;29;20056;-72
2023/07/07 08:42:24;;;;;;;4.75;1.80;;;28.80;96.70;;;;;;4879620;29;20079;-71
2023/07/07 08:44:53;;;;;;;4.68;1.92;;;28.90;96.70;;;;;;4882629;29;20068;-71
2023/07/07 08:47:34;;;;;;;3.05;2.08;;;28.90;96.70;;;;;;4871535;29;20112;-72
2023/07/07 08:50:06;;;;;;;4.45;1.90;;;29.00;96.70;;;;;;4873789;29;20049;-73
2023/07/07 08:53:01;;;;;;;2.45;1.90;;;29.00;96.70;;;;;;4870825;29;20124;-73
2023/07/07 08:55:50;;;;;;;3.05;2.20;;;28.90;96.70;;;;;;4869177;29;20052;-74
2023/07/07 08:58:27;;;;;;;2.60;2.03;;;28.90;96.70;;;;;;4871759;29;20061;-71
2023/07/07 09:01:16;;;;;;;2.78;1.85;;;29.20;96.70;;;;;;4887243;29;20139;-71
2023/07/07 09:04:03;;;;;;;2.38;1.90;;;29.30;96.70;;;;;;4878153;29;20152;-71
2023/07/07 09:06:46;;;;;;;2.83;1.77;;;29.30;96.70;;;;;;4861606;29;20055;-71
2023/07/07 09:09:26;;;;;;;2.92;1.65;;;29.30;96.70;;;;;;4878242;29;20166;-70
2023/07/07 09:12:05;;;;;;;3.45;1.75;;;29.40;96.70;;;;;;4878276;29;20140;-72
2023/07/07 09:14:35;;;;;;;5.60;1.75;;;29.50;96.70;;;;;;4887577;29;20751;-72
2023/07/07 09:17:12;;;;;;;2.78;1.80;;;29.60;96.70;;;;;;4855784;29;20057;-71
2023/07/07 09:19:44;;;;;;;2.10;1.52;;;29.40;96.70;;;;;;4869063;29;20123;-70
2023/07/07 09:22:23;;;;;;;4.28;2.08;;;29.30;96.70;;;;;;4863530;29;20395;-70
2023/07/07 09:24:57;;;;;;;1.75;1.65;;;29.40;96.70;;;;;;4888489;29;20554;-70
2023/07/07 09:27:37;;;;;;;4.93;2.20;;;29.30;96.70;;;;;;4886337;29;20044;-70
2023/07/07 09:30:19;;;;;;;4.22;1.70;;;29.40;96.70;;;;;;4877534;29;20061;-70
2023/07/07 09:32:48;;;;;;;2.47;1.75;;;29.50;96.70;;;;;;4889604;29;20052;-70
2023/07/07 09:35:21;;;;;;;2.78;1.85;;;29.60;96.70;;;;;;4864110;29;20053;-70
2023/07/07 09:38:00;;;;;;;2.08;1.73;;;29.70;96.70;;;;;;4873142;29;20053;-70
2023/07/07 09:40:35;;;;;;;1.90;1.70;;;29.70;96.70;;;;;;4861825;29;20051;-69
2023/07/07 09:43:13;;;;;;;3.50;1.65;;;29.90;96.70;;;;;;4891554;29;20048;-71
2023/07/07 09:45:53;;;;;;;4.30;2.05;;;30.00;96.70;;;;;;4873799;29;20072;-70
2023/07/07 09:48:25;;;;;;;3.08;2.00;;;30.10;96.70;;;;;;4891050;29;20409;-71
2023/07/07 09:51:06;;;;;;;5.00;2.25;;;30.20;96.70;;;;;;4874229;29;20127;-70
2023/07/07 09:53:38;;;;;;;4.57;2.40;;;30.30;96.70;;;;;;4857348;29;20081;-71
2023/07/07 09:56:16;;;;;;;4.97;2.92;;;30.40;96.70;;;;;;4866150;29;20049;-70
2023/07/07 09:58:50;;;;;;;4.70;2.28;;;30.50;96.70;;;;;;4873812;29;20483;-71
2023/07/07 10:01:20;;;;;;;2.75;1.73;;;30.50;96.70;;;;;;4880524;29;20614;-71
2023/07/07 10:03:48;;;;;;;3.58;2.10;;;30.60;96.70;;;;;;4888963;29;20451;-70
2023/07/07 10:06:25;;;;;;;2.78;1.90;;;30.70;96.70;;;;;;4865844;29;20578;-71
2023/07/07 10:08:53;;;;;;;3.40;1.80;;;30.70;96.70;;;;;;4878150;29;20395;-71
2023/07/07 10:11:23;;;;;;;3.50;1.90;;;30.50;96.70;;;;;;4876196;29;20084;-71
2023/07/07 10:14:18;;;;;;;5.07;1.88;;;30.50;96.70;;;;;;4889443;29;20053;-69
2023/07/07 10:17:11;;;;;;;3.03;1.85;;;30.70;96.70;;;;;;4890791;29;20041;-70
2023/07/07 10:19:58;;;;;;;3.47;1.83;;;30.90;96.70;;;;;;4879706;29;20048;-70
2023/07/07 10:22:29;;;;;;;3.17;1.70;;;31.10;96.70;;;;;;4877604;29;20056;-72
2023/07/07 10:24:57;;;;;;;2.60;1.85;;;31.20;96.70;;;;;;4889731;29;20052;-72
2023/07/07 10:27:27;;;;;;;2.60;2.03;;;31.20;96.70;;;;;;4865855;29;20045;-73
2023/07/07 10:29:57;;;;;;;3.63;2.08;;;31.50;96.70;;;;;;4872809;29;20096;-70
2023/07/07 10:32:26;;;;;;;3.80;1.90;;;31.50;96.70;;;;;;4892298;29;20522;-70
2023/07/07 10:34:58;;;;;;;3.95;2.42;;;31.60;96.70;;;;;;4872597;29;20148;-70
2023/07/07 10:37:29;;;;;;;4.05;1.95;;;31.60;96.70;;;;;;4882335;29;20132;-70
2023/07/07 10:39:59;;;;;;;5.00;1.90;;;31.50;96.70;;;;;;4866121;29;20053;-71
2023/07/07 10:42:29;;;;;;;3.22;2.20;;;31.60;96.70;;;;;;4873419;29;20163;-71
2023/07/07 10:44:59;;;;;;;5.07;2.28;;;31.60;96.70;;;;;;4889784;29;20147;-71
2023/07/07 10:47:30;;;;;;;3.60;1.90;;;31.60;96.70;;;;;;4872973;29;20052;-70
2023/07/07 10:49:59;;;;;;;4.53;2.17;;;31.90;96.70;;;;;;4873264;29;20533;-70
2023/07/07 10:52:56;;;;;;;4.13;2.00;;;31.90;96.70;;;;;;4873155;29;20139;-71
2023/07/07 10:55:33;;;;;;;4.03;2.05;;;31.80;96.70;;;;;;4872122;29;20064;-70
2023/07/07 10:58:13;;;;;;;4.07;2.20;;;31.70;96.70;;;;;;4873368;29;20051;-70
2023/07/07 11:00:53;;;;;;;5.13;2.40;;;31.60;96.70;;;;;;4889755;29;20079;-70
2023/07/07 11:03:48;;;;;;;5.07;2.10;;;31.50;96.70;;;;;;4890344;29;20094;-70
2023/07/07 11:06:26;;;;;;;2.72;1.90;;;31.90;96.70;;;;;;4872894;29;20127;-71
2023/07/07 11:09:03;;;;;;;2.70;2.00;;;32.20;96.70;;;;;;4872639;29;20076;-70
2023/07/07 11:11:38;;;;;;;3.78;1.98;;;32.30;96.70;;;;;;4866878;29;20056;-70
2023/07/07 11:14:25;;;;;;;3.85;1.70;;;32.10;96.70;;;;;;4872811;29;20048;-71
2023/07/07 11:17:04;;;;;;;3.30;1.92;;;31.90;96.70;;;;;;4888258;29;20052;-70
2023/07/07 11:19:55;;;;;;;5.78;2.28;;;32.20;96.70;;;;;;4871979;29;20132;-70
2023/07/07 11:22:38;;;;;;;3.58;1.70;;;32.30;96.70;;;;;;4871048;29;20060;-70
2023/07/07 11:25:18;;;;;;;3.10;1.73;;;32.30;96.70;;;;;;4885334;29;20451;-71
2023/07/07 11:28:08;;;;;;;4.70;2.08;;;32.40;96.70;;;;;;4886244;29;20072;-71
2023/07/07 11:30:48;;;;;;;2.58;1.90;;;32.50;96.70;;;;;;4862862;29;20427;-70
2023/07/07 11:33:29;;;;;;;4.53;2.15;;;32.50;96.70;;;;;;4872057;29;20049;-71
2023/07/07 11:36:16;;;;;;;2.75;1.75;;;32.80;96.70;;;;;;4886858;29;20067;-71
2023/07/07 11:38:58;;;;;;;3.25;1.80;;;33.00;96.70;;;;;;4867003;29;20055;-70
2023/07/07 11:41:41;;;;;;;4.22;2.15;;;33.20;96.70;;;;;;4872655;29;20056;-71
2023/07/07 11:44:32;;;;;;;3.30;1.90;;;33.20;96.70;;;;;;4889369;29;20238;-70
2023/07/07 11:47:26;;;;;;;4.07;2.30;;;33.40;96.70;;;;;;4888090;29;20056;-70
2023/07/07 11:50:19;;;;;;;4.78;2.00;;;33.60;96.70;;;;;;4889266;29;20114;-71
2023/07/07 11:53:06;;;;;;;4.07;1.67;;;33.70;96.70;;;;;;4889790;29;20475;-70
2023/07/07 11:55:46;;;;;;;;;;;33.80;96.70;;;;;;4881426;29;20080;-71
2023/07/07 11:58:42;;;;;;;3.40;1.80;;;33.80;96.70;;;;;;4887658;29;20395;-70
2023/07/07 12:01:15;;;;;;;3.53;2.17;;;33.90;96.70;;;;;;4792831;29;20054;-71
2023/07/07 12:03:50;;;;;;;2.53;1.60;;;34.00;96.70;;;;;;4794569;29;20563;-70
2023/07/07 12:06:26;;;;;;;2.65;1.67;;;34.20;96.70;;;;;;4793858;29;20066;-70
2023/07/07 12:09:06;;;;;;;3.80;1.85;;;34.10;96.70;;;;;;4794292;29;20070;-70
2023/07/07 12:11:41;;;;;;;5.97;1.77;;;34.10;96.70;;;;;;4773240;29;20082;-70
2023/07/07 12:14:23;;;;;;;3.40;1.95;;;34.00;96.70;;;;;;4779443;29;20525;-70
2023/07/07 12:16:54;;;;;;;6.20;2.00;;;34.20;96.70;;;;;;4778757;29;20458;-71
2023/07/07 12:19:31;;;;;;;3.08;1.77;;;34.40;96.70;;;;;;4793665;29;20569;-70
2023/07/07 12:22:00;;;;;;;4.68;1.98;;;34.60;96.70;;;;;;4794112;29;20250;-70
2023/07/07 12:24:38;;;;;;;4.03;1.77;;;34.60;96.70;;;;;;4786878;29;20062;-70
2023/07/07 12:27:13;;;;;;;2.92;1.75;;;34.60;96.70;;;;;;4871115;29;20045;-70
2023/07/07 12:29:45;;;;;;;5.13;1.90;;;34.50;96.70;;;;;;4847114;29;20053;-70
2023/07/07 12:32:14;;;;;;;3.33;1.75;;;34.60;96.70;;;;;;4866141;29;20064;-70
2023/07/07 12:35:14;;;;;;;3.85;2.17;;;34.70;96.70;;;;;;4887580;29;20049;-70
2023/07/07 12:37:43;;;;;;;4.68;2.00;;;34.80;96.70;;;;;;4796880;29;20054;-71
2023/07/07 12:40:44;;;;;;;6.07;2.10;;;34.90;96.70;;;;;;4867181;29;20076;-71
2023/07/07 12:43:21;;;;;;;3.63;1.70;;;35.00;96.70;;;;;;4881845;29;20074;-70
2023/07/07 12:45:52;;;;;;;3.10;1.73;;;35.10;96.70;;;;;;4888283;29;20152;-70
2023/07/07 12:48:23;;;;;;;3.05;2.00;;;35.10;96.70;;;;;;4863773;29;20056;-70
2023/07/07 12:50:56;;;;;;;5.13;2.22;;;34.90;96.70;;;;;;4868207;29;20136;-71
2023/07/07 12:53:27;;;;;;;3.70;2.00;;;34.90;96.70;;;;;;4870697;29;20643;-71
2023/07/07 12:56:15;;;;;;;5.97;2.05;;;35.10;96.70;;;;;;4886375;29;20081;-70
2023/07/07 12:58:47;;;;;;;3.67;1.98;;;35.20;96.70;;;;;;4876311;29;20059;-71
2023/07/07 13:01:34;;;;;;;3.28;1.90;;;35.20;96.10;;;;;;4881560;29;20049;-70
2023/07/07 13:04:16;;;;;;;3.42;1.70;;;35.40;96.70;;;;;;4874620;29;20104;-70
2023/07/07 13:07:06;;;;;;;3.35;1.90;;;35.50;96.70;;;;;;4882218;29;20053;-71
2023/07/07 13:09:46;;;;;;;3.50;1.95;;;35.70;96.70;;;;;;4874906;29;20068;-70
2023/07/07 13:12:43;;;;;;;5.38;2.10;;;36.00;96.50;;;;;;4864432;29;20657;-71
2023/07/07 13:15:20;;;;;;;4.60;1.98;;;36.10;95.70;;;;;;4897403;29;20052;-71
2023/07/07 13:17:53;;;;;;;4.65;2.10;;;36.40;95.70;;;;;;4874366;29;20048;-70
2023/07/07 13:20:22;;;;;;;3.15;2.30;;;36.50;96.70;;;;;;4873797;29;20048;-69
2023/07/07 13:22:54;;;;;;;3.80;2.08;;;36.60;96.70;;;;;;4873582;29;20048;-71